Time;durP1;ratioP1;P1;durP2;ratioP2;P2;SDS_P1;SDS_P2;PMS_P1;PMS_P2;Temp;Humidity;BMP_temperature;BMP_pressure;BME280_temperature;BME280_humidity;BME280_pressure;Samples;Min_cycle;Max_cycle;Signal;HPM_P1;HPM_P2
2022/01/25 00:32:27;;;;;;;4.68;2.13;;;;;;;;;;5053479;28;20044;-76
2022/01/25 00:34:56;;;;;;;6.43;1.60;;;;;;;;;;5051547;28;20037;-76
2022/01/25 00:37:25;;;;;;;3.50;1.73;;;;;;;;;;5054315;28;20051;-76
2022/01/25 00:39:55;;;;;;;2.30;1.98;;;;;;;;;;5054446;28;20120;-76
2022/01/25 00:42:25;;;;;;;3.00;2.33;;;;;;;;;;5054294;28;20453;-76
2022/01/25 00:44:55;;;;;;;3.05;1.90;;;;;;;;;;5053905;28;20045;-76
2022/01/25 00:47:25;;;;;;;4.35;1.60;;;;;;;;;;5054075;28;20155;-76
2022/01/25 00:49:54;;;;;;;1.88;1.33;;;;;;;;;;5053731;28;20120;-76
2022/01/25 00:53:53;;;;;;;2.20;1.70;;;;;;;;;;5053655;28;20045;-76
2022/01/25 00:55:12;;;;;;;1.63;1.52;;;;;;;;;;5053564;28;20087;-76
2022/01/25 00:57:40;;;;;;;2.60;1.60;;;;;;;;;;5053142;28;20041;-76
2022/01/25 01:00:12;;;;;;;4.28;2.03;;;;;;;;;;5053445;28;20049;-76
2022/01/25 01:02:43;;;;;;;4.32;1.60;;;;;;;;;;5051700;28;20571;-76
2022/01/25 01:05:13;;;;;;;4.82;1.80;;;;;;;;;;5053878;28;20106;-76
2022/01/25 01:07:43;;;;;;;4.22;1.40;;;;;;;;;;5053648;28;20051;-76
2022/01/25 01:10:17;;;;;;;3.92;1.60;;;;;;;;;;5053029;28;20045;-77
2022/01/25 01:38:55;;;;;;;1.60;1.50;;;;;;;;;;5051496;28;20075;-76
2022/01/25 01:43:40;;;;;;;2.05;1.50;;;;;;;;;;5032382;28;20068;-76
2022/01/25 01:48:53;;;;;;;3.72;1.95;;;;;;;;;;5031511;28;20069;-76
2022/01/25 01:51:33;;;;;;;5.22;1.50;;;;;;;;;;5032896;28;20053;-76
2022/01/25 01:54:02;;;;;;;5.05;1.45;;;;;;;;;;5031491;28;20034;-76
2022/01/25 01:56:33;;;;;;;4.75;1.70;;;;;;;;;;5031865;28;20409;-76
2022/01/25 01:59:06;;;;;;;2.92;1.73;;;;;;;;;;5032843;28;20036;-76
2022/01/25 02:01:36;;;;;;;4.15;1.75;;;;;;;;;;5033071;28;20048;-75
2022/01/25 02:04:05;;;;;;;2.72;1.60;;;;;;;;;;5032920;28;20053;-76
2022/01/25 02:06:35;;;;;;;3.53;1.60;;;;;;;;;;5033247;28;20056;-76
2022/01/25 02:09:05;;;;;;;6.03;1.88;;;;;;;;;;5032624;28;20050;-76
2022/01/25 02:11:32;;;;;;;2.70;1.77;;;;;;;;;;5031469;28;20132;-76
2022/01/25 02:14:05;;;;;;;2.10;1.50;;;;;;;;;;5031358;28;20038;-76
2022/01/25 02:24:44;;;;;;;5.47;1.65;;;;;;;;;;5032924;28;20072;-76
2022/01/25 02:27:13;;;;;;;2.78;1.80;;;;;;;;;;5032702;28;20056;-76
2022/01/25 02:29:40;;;;;;;2.63;2.00;;;;;;;;;;5032499;28;20220;-76
2022/01/25 02:32:10;;;;;;;2.55;1.63;;;;;;;;;;5030943;28;20045;-76
2022/01/25 02:34:38;;;;;;;2.42;1.40;;;;;;;;;;5030154;28;20046;-76
2022/01/25 02:37:09;;;;;;;2.25;1.40;;;;;;;;;;5030983;28;20049;-76
2022/01/25 02:39:42;;;;;;;5.40;1.67;;;;;;;;;;5031307;28;20136;-77
2022/01/25 02:42:18;;;;;;;1.85;1.63;;;;;;;;;;5031474;28;20041;-76
2022/01/25 02:44:46;;;;;;;4.57;1.65;;;;;;;;;;5031006;28;20037;-76
2022/01/25 02:50:01;;;;;;;2.25;1.50;;;;;;;;;;5032033;28;20116;-76
2022/01/25 02:52:30;;;;;;;3.05;1.55;;;;;;;;;;5032366;28;20508;-76
2022/01/25 02:55:03;;;;;;;3.83;1.70;;;;;;;;;;5032030;28;20139;-76
2022/01/25 02:57:32;;;;;;;3.10;1.83;;;;;;;;;;5030686;28;20041;-76
2022/01/25 03:00:07;;;;;;;4.63;2.08;;;;;;;;;;5035205;28;20044;-76
2022/01/25 03:02:39;;;;;;;4.68;1.73;;;;;;;;;;5036076;28;20049;-76
2022/01/25 03:05:11;;;;;;;4.97;1.83;;;;;;;;;;5035975;28;20127;-77
2022/01/25 03:07:43;;;;;;;3.65;1.63;;;;;;;;;;5035664;28;20045;-76
2022/01/25 03:10:12;;;;;;;5.88;1.90;;;;;;;;;;5035662;28;20053;-76
2022/01/25 03:12:47;;;;;;;3.10;1.55;;;;;;;;;;5033840;28;20045;-76
2022/01/25 03:17:58;;;;;;;3.13;1.70;;;;;;;;;;5035743;28;20045;-76
2022/01/25 03:20:48;;;;;;;2.88;1.70;;;;;;;;;;5035748;28;20044;-76
2022/01/25 03:23:19;;;;;;;2.25;2.00;;;;;;;;;;5035546;28;20073;-76
2022/01/25 03:25:47;;;;;;;3.33;2.20;;;;;;;;;;5035109;28;20124;-76
2022/01/25 03:28:17;;;;;;;2.42;1.90;;;;;;;;;;5035687;28;20073;-76
2022/01/25 03:30:45;;;;;;;6.85;2.05;;;;;;;;;;5035413;28;20038;-76
2022/01/25 03:33:14;;;;;;;5.40;1.90;;;;;;;;;;5034806;28;20033;-76
2022/01/25 03:35:43;;;;;;;2.35;1.90;;;;;;;;;;5034767;28;20047;-76
2022/01/25 03:38:12;;;;;;;3.60;2.00;;;;;;;;;;5035426;28;20041;-76
2022/01/25 03:40:39;;;;;;;2.30;1.65;;;;;;;;;;5035305;28;20045;-76
2022/01/25 03:43:09;;;;;;;6.43;2.28;;;;;;;;;;5035316;28;20421;-76
2022/01/25 03:45:40;;;;;;;2.80;1.90;;;;;;;;;;5047639;28;20377;-76
2022/01/25 03:50:42;;;;;;;4.63;2.47;;;;;;;;;;5055041;28;20049;-76
2022/01/25 03:53:11;;;;;;;6.45;2.70;;;;;;;;;;5054973;28;20094;-76
2022/01/25 03:55:39;;;;;;;3.97;2.53;;;;;;;;;;5054985;28;20044;-76
2022/01/25 03:58:09;;;;;;;2.97;2.30;;;;;;;;;;5054846;28;20037;-75
2022/01/25 04:00:39;;;;;;;6.55;2.75;;;;;;;;;;5054805;28;20063;-76
2022/01/25 04:08:12;;;;;;;5.70;2.20;;;;;;;;;;5054761;28;20051;-76
2022/01/25 04:10:40;;;;;;;1.92;1.75;;;;;;;;;;5053141;28;20400;-76
2022/01/25 04:13:10;;;;;;;5.88;2.42;;;;;;;;;;5054435;28;20476;-76
2022/01/25 04:15:41;;;;;;;2.45;2.25;;;;;;;;;;5054333;28;20395;-76
2022/01/25 04:20:57;;;;;;;3.67;2.10;;;;;;;;;;5054797;28;20075;-76
2022/01/25 04:26:13;;;;;;;5.55;2.72;;;;;;;;;;5054496;28;20504;-76
2022/01/25 04:28:43;;;;;;;5.28;2.80;;;;;;;;;;5053017;28;20127;-77
2022/01/25 04:31:18;;;;;;;5.95;2.92;;;;;;;;;;5054396;28;20049;-77
2022/01/25 04:55:54;;;;;;;2.55;1.95;;;;;;;;;;5053925;28;20041;-76
2022/01/25 04:59:02;;;;;;;3.00;2.35;;;;;;;;;;5053713;28;20044;-77
2022/01/25 05:01:17;;;;;;;2.47;2.25;;;;;;;;;;5052741;28;20053;-77
2022/01/25 05:04:06;;;;;;;6.90;2.60;;;;;;;;;;5053915;28;20049;-77
2022/01/25 05:06:34;;;;;;;4.38;2.55;;;;;;;;;;5053496;28;20041;-77
2022/01/25 05:09:09;;;;;;;4.05;2.50;;;;;;;;;;5053761;28;20041;-77
2022/01/25 05:11:58;;;;;;;4.70;2.78;;;;;;;;;;5052209;28;20057;-77
2022/01/25 05:14:32;;;;;;;5.28;2.85;;;;;;;;;;5052388;28;20036;-76
2022/01/25 05:17:04;;;;;;;4.85;2.65;;;;;;;;;;5052358;28;20090;-77
2022/01/25 05:22:20;;;;;;;5.55;2.95;;;;;;;;;;5052456;28;20048;-77
2022/01/25 05:24:48;;;;;;;;;;;;;;;;;;5053615;28;20047;-76
2022/01/25 05:27:17;;;;;;;4.07;2.28;;;;;;;;;;5052276;28;20361;-77
2022/01/25 05:29:45;;;;;;;2.50;2.08;;;;;;;;;;5053080;28;20049;-77
2022/01/25 05:32:17;;;;;;;3.33;2.17;;;;;;;;;;5052817;28;20049;-77
2022/01/25 05:34:45;;;;;;;3.83;2.30;;;;;;;;;;5052892;28;20044;-77
2022/01/25 05:37:14;;;;;;;3.85;1.95;;;;;;;;;;5053106;28;20092;-77
2022/01/25 05:39:45;;;;;;;2.38;1.95;;;;;;;;;;5053000;28;20094;-77
2022/01/25 05:42:32;;;;;;;2.80;1.85;;;;;;;;;;5053193;28;20089;-77
2022/01/25 05:47:52;;;;;;;8.57;2.70;;;;;;;;;;5051525;28;20060;-78
2022/01/25 05:50:20;;;;;;;9.63;2.47;;;;;;;;;;5051694;28;20033;-77
2022/01/25 05:52:50;;;;;;;3.72;3.33;;;;;;;;;;5052772;28;20522;-76
2022/01/25 05:55:18;;;;;;;6.72;2.70;;;;;;;;;;5051527;28;20037;-76
2022/01/25 05:57:45;;;;;;;3.47;2.55;;;;;;;;;;5051823;28;20048;-76
2022/01/25 06:00:13;;;;;;;2.72;2.03;;;;;;;;;;5052547;28;20052;-76
2022/01/25 06:02:42;;;;;;;5.50;2.30;;;;;;;;;;5033263;28;20470;-76
2022/01/25 06:05:10;;;;;;;3.15;2.00;;;;;;;;;;5033173;28;20511;-76
2022/01/25 06:07:46;;;;;;;3.58;2.17;;;;;;;;;;5033378;28;20056;-76
2022/01/25 06:10:14;;;;;;;3.65;2.15;;;;;;;;;;5033374;28;20045;-76
2022/01/25 06:12:45;;;;;;;2.38;2.13;;;;;;;;;;5051332;28;20084;-76
2022/01/25 06:15:16;;;;;;;5.55;2.30;;;;;;;;;;5050341;28;20033;-77
2022/01/25 06:17:45;;;;;;;3.72;2.20;;;;;;;;;;5051648;28;20040;-77
2022/01/25 06:20:12;;;;;;;9.95;2.78;;;;;;;;;;5051838;28;20041;-76
2022/01/25 06:22:40;;;;;;;7.18;2.20;;;;;;;;;;5052399;28;20365;-77
2022/01/25 06:25:11;;;;;;;3.55;1.98;;;;;;;;;;5052695;28;20138;-77
2022/01/25 06:27:43;;;;;;;2.00;1.80;;;;;;;;;;5051834;28;20063;-76
2022/01/25 06:30:15;;;;;;;3.95;2.72;;;;;;;;;;5052081;28;20045;-77
2022/01/25 06:32:46;;;;;;;5.20;2.72;;;;;;;;;;5052054;28;20037;-76
2022/01/25 06:35:15;;;;;;;3.58;2.55;;;;;;;;;;5055379;28;20056;-77
2022/01/25 06:37:44;;;;;;;6.18;2.60;;;;;;;;;;5055338;28;20045;-78
2022/01/25 06:40:13;;;;;;;7.95;2.30;;;;;;;;;;5056915;28;20395;-77
2022/01/25 06:42:41;;;;;;;4.97;2.47;;;;;;;;;;5056292;28;20045;-78
2022/01/25 06:45:15;;;;;;;4.05;2.60;;;;;;;;;;5056497;28;20052;-78
2022/01/25 06:47:45;;;;;;;7.80;2.70;;;;;;;;;;5055743;28;20472;-76
2022/01/25 06:50:14;;;;;;;3.92;2.63;;;;;;;;;;5056432;28;20055;-74
2022/01/25 06:52:42;;;;;;;6.70;2.53;;;;;;;;;;5054309;28;20048;-75
2022/01/25 06:55:17;;;;;;;6.15;2.50;;;;;;;;;;5055170;28;20072;-74
2022/01/25 06:57:46;;;;;;;10.77;2.90;;;;;;;;;;5056060;28;20037;-75
2022/01/25 07:00:17;;;;;;;3.13;2.40;;;;;;;;;;5054882;28;20116;-77
2022/01/25 07:02:45;;;;;;;3.50;2.83;;;;;;;;;;5055766;28;20164;-76
2022/01/25 07:05:13;;;;;;;4.70;2.83;;;;;;;;;;5056212;28;20200;-76
2022/01/25 07:07:42;;;;;;;4.82;2.65;;;;;;;;;;5053357;28;20045;-76
2022/01/25 07:10:12;;;;;;;7.68;2.80;;;;;;;;;;5055275;28;20051;-77
2022/01/25 07:12:40;;;;;;;4.55;2.50;;;;;;;;;;5037901;28;20052;-77
2022/01/25 07:15:09;;;;;;;6.18;3.00;;;;;;;;;;5055631;28;20037;-77
2022/01/25 07:17:37;;;;;;;5.30;3.05;;;;;;;;;;5055865;28;20508;-77
2022/01/25 07:20:07;;;;;;;4.18;2.63;;;;;;;;;;5056044;28;20041;-81
2022/01/25 07:22:38;;;;;;;5.53;2.90;;;;;;;;;;5054571;28;20045;-84
2022/01/25 07:25:07;;;;;;;2.65;2.38;;;;;;;;;;5054662;28;20041;-83
2022/01/25 07:27:35;;;;;;;4.97;2.67;;;;;;;;;;5054126;28;20040;-81
2022/01/25 07:30:03;;;;;;;3.97;2.90;;;;;;;;;;5069957;28;20045;-81
2022/01/25 07:32:31;;;;;;;3.10;2.67;;;;;;;;;;5052925;28;20076;-79
2022/01/25 07:35:07;;;;;;;5.35;2.65;;;;;;;;;;5055275;28;20049;-75
2022/01/25 07:37:35;;;;;;;5.40;2.58;;;;;;;;;;5055505;28;20048;-77
2022/01/25 07:40:07;;;;;;;5.63;2.95;;;;;;;;;;5054623;28;20084;-75
2022/01/25 07:42:40;;;;;;;4.80;2.38;;;;;;;;;;5055446;28;20388;-77
2022/01/25 07:45:15;;;;;;;4.72;2.78;;;;;;;;;;5054983;28;20182;-84
2022/01/25 07:47:51;;;;;;;4.15;2.67;;;;;;;;;;5052956;28;20420;-76
2022/01/25 07:50:21;;;;;;;2.92;2.70;;;;;;;;;;5054071;28;20056;-80
2022/01/25 07:52:48;;;;;;;6.68;2.70;;;;;;;;;;5054938;28;20128;-79
2022/01/25 07:55:18;;;;;;;3.28;2.85;;;;;;;;;;5054811;28;20388;-80
2022/01/25 07:57:48;;;;;;;4.70;2.90;;;;;;;;;;5055036;28;20049;-76
2022/01/25 08:00:16;;;;;;;6.55;2.88;;;;;;;;;;5054744;28;20137;-84
2022/01/25 08:02:51;;;;;;;2.88;2.40;;;;;;;;;;5054995;28;20033;-78
2022/01/25 08:05:26;;;;;;;3.25;2.45;;;;;;;;;;5053536;28;20091;-82
2022/01/25 08:08:10;;;;;;;4.70;2.47;;;;;;;;;;5054172;28;20496;-78
2022/01/25 08:10:54;;;;;;;3.65;2.55;;;;;;;;;;5043541;28;20045;-76
2022/01/25 08:13:29;;;;;;;2.22;1.90;;;;;;;;;;5053334;28;20041;-82
2022/01/25 08:16:00;;;;;;;3.20;2.50;;;;;;;;;;5054696;28;20041;-81
2022/01/25 08:18:30;;;;;;;2.42;2.13;;;;;;;;;;5053393;28;20048;-78
2022/01/25 08:21:21;;;;;;;4.88;2.35;;;;;;;;;;4992449;28;20054;-79
2022/01/25 08:24:02;;;;;;;2.85;2.00;;;;;;;;;;4935273;29;20138;-82
2022/01/25 08:26:45;;;;;;;3.78;2.50;;;;;;;;;;4908930;29;20146;-79
2022/01/25 08:29:27;;;;;;;;;;;;;;;;;;4907931;29;20043;-76
2022/01/25 08:32:17;;;;;;;3.50;2.58;;;;;;;;;;4916037;29;20446;-81
2022/01/25 08:35:13;;;;;;;4.68;2.50;;;;;;;;;;4914268;29;20055;-76
2022/01/25 08:37:51;;;;;;;4.40;3.03;;;;;;;;;;4935098;29;20396;-76
2022/01/25 08:40:34;;;;;;;3.03;2.50;;;;;;;;;;4926578;29;20457;-80
2022/01/25 08:43:18;;;;;;;4.75;2.40;;;;;;;;;;4934587;29;20290;-82
2022/01/25 08:46:03;;;;;;;6.30;2.83;;;;;;;;;;4934659;29;20068;-79
2022/01/25 08:48:47;;;;;;;5.55;3.10;;;;;;;;;;4935010;29;20066;-82
2022/01/25 08:51:18;;;;;;;5.20;3.80;;;;;;;;;;4934777;29;20063;-79
2022/01/25 08:53:54;;;;;;;12.73;4.25;;;;;;;;;;4935020;29;20507;-76
2022/01/25 08:56:25;;;;;;;9.02;4.28;;;;;;;;;;4934286;29;20047;-78
2022/01/25 08:58:56;;;;;;;7.57;3.78;;;;;;;;;;5005831;28;20062;-80
2022/01/25 09:01:24;;;;;;;7.35;3.50;;;;;;;;;;5015923;28;20061;-79
2022/01/25 09:03:54;;;;;;;10.07;3.80;;;;;;;;;;5052820;28;20033;-82
2022/01/25 09:06:23;;;;;;;13.10;3.55;;;;;;;;;;5053523;28;20033;-79
2022/01/25 09:08:51;;;;;;;4.35;3.10;;;;;;;;;;5052823;28;20469;-78
2022/01/25 09:11:22;;;;;;;5.13;3.40;;;;;;;;;;5052571;28;20049;-79
2022/01/25 09:13:49;;;;;;;18.08;7.63;;;;;;;;;;5053504;28;20211;-79
2022/01/25 09:16:18;;;;;;;8.82;4.68;;;;;;;;;;5053173;28;20040;-79
2022/01/25 09:18:47;;;;;;;5.18;3.45;;;;;;;;;;5053593;28;20041;-79
2022/01/25 09:21:15;;;;;;;5.40;3.50;;;;;;;;;;5052877;28;20037;-78
2022/01/25 09:23:43;;;;;;;5.03;3.58;;;;;;;;;;5051356;28;20032;-78
2022/01/25 09:26:12;;;;;;;7.32;4.65;;;;;;;;;;5050982;28;20037;-77
2022/01/25 09:28:41;;;;;;;7.55;4.15;;;;;;;;;;5053980;28;20033;-77
2022/01/25 09:31:10;;;;;;;8.25;3.42;;;;;;;;;;5052994;28;20037;-78
2022/01/25 09:33:37;;;;;;;6.97;3.35;;;;;;;;;;5051578;28;20488;-75
2022/01/25 09:36:06;;;;;;;6.03;3.22;;;;;;;;;;5042916;28;20060;-79
2022/01/25 09:38:33;;;;;;;7.05;3.08;;;;;;;;;;5035921;28;20051;-82
2022/01/25 09:41:01;;;;;;;3.88;2.83;;;;;;;;;;5053105;28;20044;-79
2022/01/25 09:43:32;;;;;;;4.82;3.03;;;;;;;;;;5051762;28;20064;-79
2022/01/25 09:46:00;;;;;;;8.68;3.13;;;;;;;;;;5052474;28;20041;-79
2022/01/25 09:48:28;;;;;;;6.20;3.50;;;;;;;;;;5052923;28;20090;-83
2022/01/25 09:51:00;;;;;;;5.75;3.40;;;;;;;;;;5051870;28;20037;-83
2022/01/25 09:53:29;;;;;;;4.80;2.88;;;;;;;;;;5053390;28;20124;-80
2022/01/25 09:55:57;;;;;;;7.35;2.88;;;;;;;;;;5052968;28;20420;-82
2022/01/25 09:58:27;;;;;;;3.85;2.97;;;;;;;;;;5052591;28;20041;-80
2022/01/25 10:00:57;;;;;;;9.60;3.38;;;;;;;;;;5053326;28;20036;-79
2022/01/25 10:03:31;;;;;;;6.05;2.65;;;;;;;;;;5053979;28;20041;-78
2022/01/25 10:06:01;;;;;;;3.88;2.88;;;;;;;;;;5053081;28;20037;-78
2022/01/25 10:08:35;;;;;;;7.43;2.80;;;;;;;;;;5052720;28;20212;-83
2022/01/25 10:11:07;;;;;;;3.92;2.75;;;;;;;;;;5116721;22;20406;-82
2022/01/25 10:13:40;;;;;;;5.28;2.60;;;;;;;;;;5049547;28;20036;-78
2022/01/25 10:16:12;;;;;;;6.85;2.83;;;;;;;;;;5047016;28;20120;-83
2022/01/25 10:18:46;;;;;;;3.28;2.63;;;;;;;;;;5052841;28;20040;-82
2022/01/25 10:21:17;;;;;;;3.50;2.60;;;;;;;;;;5052885;28;20391;-78
2022/01/25 10:23:58;;;;;;;6.63;2.60;;;;;;;;;;5042128;28;20037;-76
2022/01/25 10:26:29;;;;;;;3.90;2.70;;;;;;;;;;5031683;28;20045;-80
2022/01/25 10:29:12;;;;;;;5.68;2.63;;;;;;;;;;5045564;28;20052;-77
2022/01/25 10:31:44;;;;;;;3.38;2.55;;;;;;;;;;5052304;28;20522;-76
2022/01/25 10:34:13;;;;;;;3.33;2.80;;;;;;;;;;5063383;28;20044;-80
2022/01/25 10:36:47;;;;;;;4.03;2.60;;;;;;;;;;5072095;28;20047;-80
2022/01/25 10:39:23;;;;;;;5.35;2.50;;;;;;;;;;5066246;28;20119;-80
2022/01/25 10:41:50;;;;;;;3.13;2.45;;;;;;;;;;5065148;28;20549;-75
2022/01/25 10:44:19;;;;;;;4.13;2.40;;;;;;;;;;5072789;28;20128;-75
2022/01/25 10:46:49;;;;;;;5.38;2.72;;;;;;;;;;5070211;28;20044;-81
2022/01/25 10:49:17;;;;;;;3.65;2.70;;;;;;;;;;5055339;28;20037;-83
2022/01/25 10:51:46;;;;;;;5.85;2.70;;;;;;;;;;5071467;28;20123;-80
2022/01/25 10:54:24;;;;;;;6.30;3.00;;;;;;;;;;5054799;28;20043;-77
2022/01/25 10:56:58;;;;;;;5.65;2.58;;;;;;;;;;5072806;28;20037;-78
2022/01/25 10:59:32;;;;;;;5.32;2.42;;;;;;;;;;5071108;28;20045;-82
2022/01/25 11:02:04;;;;;;;4.78;2.50;;;;;;;;;;5071685;28;20040;-82
2022/01/25 11:04:37;;;;;;;3.13;2.45;;;;;;;;;;5072106;28;20128;-79
2022/01/25 11:07:05;;;;;;;;;;;;;;;;;;5072819;28;20047;-83
2022/01/25 11:09:38;;;;;;;4.40;2.70;;;;;;;;;;5072258;28;19921;-80
2022/01/25 11:12:07;;;;;;;9.70;3.15;;;;;;;;;;5059276;28;20219;-80
2022/01/25 11:14:51;;;;;;;3.90;2.63;;;;;;;;;;5071658;28;20033;-76
2022/01/25 11:17:32;;;;;;;3.75;2.53;;;;;;;;;;5071948;28;20045;-78
2022/01/25 11:20:02;;;;;;;4.88;2.75;;;;;;;;;;5073425;28;20037;-83
2022/01/25 11:22:29;;;;;;;4.05;2.70;;;;;;;;;;5075284;28;20037;-78
2022/01/25 11:24:59;;;;;;;3.10;2.50;;;;;;;;;;5074633;28;20044;-79
2022/01/25 11:27:27;;;;;;;5.18;2.67;;;;;;;;;;5074735;28;20045;-79
2022/01/25 11:29:59;;;;;;;4.57;2.60;;;;;;;;;;5072086;28;20129;-82
2022/01/25 11:32:32;;;;;;;6.55;2.83;;;;;;;;;;5067541;28;20072;-83
2022/01/25 11:35:04;;;;;;;3.10;2.38;;;;;;;;;;5071332;28;20079;-79
2022/01/25 11:37:39;;;;;;;4.97;2.67;;;;;;;;;;5055150;28;20045;-79
2022/01/25 11:40:22;;;;;;;3.78;2.50;;;;;;;;;;5055792;28;20043;-77
2022/01/25 11:42:55;;;;;;;4.13;2.55;;;;;;;;;;5054469;28;20076;-81
2022/01/25 11:45:23;;;;;;;3.85;2.70;;;;;;;;;;5055869;28;20471;-75
2022/01/25 11:47:54;;;;;;;3.40;2.58;;;;;;;;;;5057688;28;20389;-77
2022/01/25 11:50:27;;;;;;;4.38;2.50;;;;;;;;;;5057867;28;20049;-83
2022/01/25 11:52:55;;;;;;;;;;;;;;;;;;5054199;28;20052;-81
2022/01/25 11:55:28;;;;;;;3.67;2.70;;;;;;;;;;5055154;28;20329;-79
2022/01/25 11:57:56;;;;;;;4.55;2.65;;;;;;;;;;5055055;28;20072;-83
2022/01/25 12:00:36;;;;;;;7.78;2.67;;;;;;;;;;5054974;28;20044;-77
2022/01/25 12:03:19;;;;;;;4.93;2.70;;;;;;;;;;5055284;28;20068;-79
2022/01/25 12:06:08;;;;;;;3.55;2.53;;;;;;;;;;5062922;28;20124;-81
2022/01/25 12:08:52;;;;;;;5.50;2.75;;;;;;;;;;5074837;28;20053;-80
2022/01/25 12:11:20;;;;;;;;;;;;;;;;;;5073638;28;20060;-79
2022/01/25 12:13:48;;;;;;;5.20;3.08;;;;;;;;;;5073307;28;19920;-79
2022/01/25 12:16:23;;;;;;;4.43;2.90;;;;;;;;;;5073419;28;20051;-80
2022/01/25 12:18:52;;;;;;;4.32;2.90;;;;;;;;;;5053732;28;20040;-80
2022/01/25 12:21:39;;;;;;;4.80;3.00;;;;;;;;;;5064919;28;20040;-77
2022/01/25 12:24:21;;;;;;;3.38;3.03;;;;;;;;;;5064558;28;20148;-76
2022/01/25 12:29:46;;;;;;;5.95;3.20;;;;;;;;;;5064229;28;20422;-76
2022/01/25 12:32:18;;;;;;;5.53;3.25;;;;;;;;;;5072854;28;20139;-78
2022/01/25 12:34:58;;;;;;;4.43;3.00;;;;;;;;;;5073824;28;20044;-81
2022/01/25 12:37:54;;;;;;;4.40;2.83;;;;;;;;;;5074251;28;20033;-79
2022/01/25 12:40:25;;;;;;;4.18;2.92;;;;;;;;;;5070155;28;20054;-79
2022/01/25 12:42:54;;;;;;;3.42;2.80;;;;;;;;;;5074004;28;20131;-78
2022/01/25 12:45:24;;;;;;;7.05;3.00;;;;;;;;;;5073615;28;20048;-78
2022/01/25 12:47:56;;;;;;;6.20;3.38;;;;;;;;;;5073691;28;20040;-78
2022/01/25 12:50:25;;;;;;;4.53;3.35;;;;;;;;;;5072960;28;20040;-76
2022/01/25 12:52:55;;;;;;;3.95;2.95;;;;;;;;;;5072714;28;20106;-80
2022/01/25 12:55:26;;;;;;;4.68;2.90;;;;;;;;;;5072206;28;20503;-79
2022/01/25 12:57:54;;;;;;;4.32;3.17;;;;;;;;;;5073496;28;20047;-80
2022/01/25 13:00:28;;;;;;;9.13;3.17;;;;;;;;;;5072134;28;20041;-82
2022/01/25 13:03:10;;;;;;;5.03;3.33;;;;;;;;;;5053534;28;20040;-79
2022/01/25 13:05:50;;;;;;;9.80;3.30;;;;;;;;;;5060824;28;20047;-82
2022/01/25 13:08:26;;;;;;;3.70;3.10;;;;;;;;;;5060339;28;20064;-76
2022/01/25 13:10:58;;;;;;;5.40;3.13;;;;;;;;;;5061723;28;20042;-78
2022/01/25 13:13:31;;;;;;;6.38;2.92;;;;;;;;;;5062710;28;20043;-76
2022/01/25 13:16:00;;;;;;;3.47;3.13;;;;;;;;;;5060559;28;20119;-75
2022/01/25 13:18:31;;;;;;;4.70;2.90;;;;;;;;;;5059370;28;20611;-76
2022/01/25 13:21:00;;;;;;;9.52;3.08;;;;;;;;;;5065464;28;20075;-76
2022/01/25 13:23:29;;;;;;;4.07;2.70;;;;;;;;;;5062755;28;20040;-76
2022/01/25 13:26:12;;;;;;;3.72;2.83;;;;;;;;;;5059433;28;20150;-78
2022/01/25 13:31:19;;;;;;;5.40;3.13;;;;;;;;;;5065346;28;20586;-82
2022/01/25 13:33:47;;;;;;;4.55;3.65;;;;;;;;;;5061249;28;20060;-82
2022/01/25 13:36:16;;;;;;;5.38;2.70;;;;;;;;;;5061617;28;20038;-78
2022/01/25 13:38:46;;;;;;;6.57;2.92;;;;;;;;;;5058575;28;20391;-78
2022/01/25 13:41:39;;;;;;;4.72;3.38;;;;;;;;;;5037776;28;20132;-78
2022/01/25 13:46:39;;;;;;;3.95;2.90;;;;;;;;;;5062552;28;20586;-79
2022/01/25 13:49:12;;;;;;;4.95;2.88;;;;;;;;;;5056575;28;20044;-79
2022/01/25 13:51:45;;;;;;;5.70;3.00;;;;;;;;;;5065480;28;20469;-79
2022/01/25 13:54:21;;;;;;;6.60;3.03;;;;;;;;;;5062358;28;20124;-83
2022/01/25 13:56:49;;;;;;;5.88;2.90;;;;;;;;;;5065955;28;20063;-79
2022/01/25 13:59:17;;;;;;;4.47;3.10;;;;;;;;;;5070338;28;20132;-78
2022/01/25 14:01:45;;;;;;;7.40;2.92;;;;;;;;;;5065912;28;20403;-82
2022/01/25 14:04:25;;;;;;;5.53;2.95;;;;;;;;;;5060842;28;20063;-82
2022/01/25 14:07:03;;;;;;;3.50;2.63;;;;;;;;;;5058323;28;20051;-76
2022/01/25 14:09:34;;;;;;;5.28;3.40;;;;;;;;;;5057751;28;20044;-81
2022/01/25 14:23:27;;;;;;;5.10;2.95;;;;;;;;;;5052456;28;20044;-78
2022/01/25 14:26:02;;;;;;;7.13;3.22;;;;;;;;;;5050069;28;20041;-82
2022/01/25 14:28:32;;;;;;;5.28;2.95;;;;;;;;;;5064076;28;20405;-83
2022/01/25 14:31:01;;;;;;;4.65;3.20;;;;;;;;;;5052703;28;20086;-76
2022/01/25 14:33:34;;;;;;;5.03;3.00;;;;;;;;;;5053123;28;20041;-79
2022/01/25 14:36:04;;;;;;;4.30;2.60;;;;;;;;;;5056897;28;20467;-76
2022/01/25 14:38:34;;;;;;;3.97;3.08;;;;;;;;;;5053248;28;20036;-77
2022/01/25 14:41:01;;;;;;;6.35;3.15;;;;;;;;;;5063854;28;20035;-79
2022/01/25 14:43:49;;;;;;;7.68;3.45;;;;;;;;;;5055488;28;20393;-78
2022/01/25 14:46:25;;;;;;;4.30;2.88;;;;;;;;;;5050962;28;20040;-76
2022/01/25 14:49:05;;;;;;;6.13;3.15;;;;;;;;;;5050993;28;20029;-79
2022/01/25 14:51:51;;;;;;;6.82;3.22;;;;;;;;;;5044721;28;20496;-81
2022/01/25 14:54:21;;;;;;;5.40;3.42;;;;;;;;;;5059362;28;20037;-80
2022/01/25 14:56:57;;;;;;;4.85;3.10;;;;;;;;;;5059229;28;20468;-84
2022/01/25 14:59:28;;;;;;;7.68;3.42;;;;;;;;;;5042997;28;20033;-83
2022/01/25 15:02:20;;;;;;;5.05;3.13;;;;;;;;;;5065712;28;20025;-78
2022/01/25 15:04:55;;;;;;;5.55;3.60;;;;;;;;;;5048298;28;20037;-77
2022/01/25 15:07:30;;;;;;;7.63;2.80;;;;;;;;;;5071088;28;20067;-85
2022/01/25 15:10:02;;;;;;;7.63;3.30;;;;;;;;;;5059871;28;20091;-79
2022/01/25 15:12:41;;;;;;;3.53;3.20;;;;;;;;;;5053442;28;20052;-79
2022/01/25 15:15:19;;;;;;;5.80;3.17;;;;;;;;;;5056936;28;20226;-78
2022/01/25 15:18:00;;;;;;;4.07;2.90;;;;;;;;;;5060017;28;20127;-80
2022/01/25 15:20:27;;;;;;;5.13;3.20;;;;;;;;;;5059646;28;20040;-85
2022/01/25 15:22:55;;;;;;;5.95;3.38;;;;;;;;;;5069335;28;20037;-78
2022/01/25 15:25:24;;;;;;;5.95;4.03;;;;;;;;;;5042472;28;20124;-79
2022/01/25 15:27:53;;;;;;;5.07;3.50;;;;;;;;;;5059863;28;20033;-79
2022/01/25 15:30:24;;;;;;;6.65;4.10;;;;;;;;;;5054203;28;20060;-79
2022/01/25 15:32:54;;;;;;;6.10;3.88;;;;;;;;;;5054516;28;20056;-77
2022/01/25 15:35:24;;;;;;;4.90;3.25;;;;;;;;;;5053185;28;20479;-79
2022/01/25 15:38:00;;;;;;;7.72;4.03;;;;;;;;;;5054843;28;20112;-79
2022/01/25 15:40:28;;;;;;;5.72;3.60;;;;;;;;;;5056435;28;20029;-78
2022/01/25 15:42:56;;;;;;;4.10;3.05;;;;;;;;;;5056615;28;20064;-79
2022/01/25 15:45:28;;;;;;;5.90;3.10;;;;;;;;;;5058881;28;20548;-77
2022/01/25 15:47:55;;;;;;;4.82;3.00;;;;;;;;;;5060085;28;20036;-77
2022/01/25 15:50:26;;;;;;;5.20;3.50;;;;;;;;;;5062897;28;20044;-77
2022/01/25 15:52:54;;;;;;;7.68;3.95;;;;;;;;;;5060311;28;20041;-79
2022/01/25 15:55:21;;;;;;;5.60;3.13;;;;;;;;;;5069221;28;20124;-84
2022/01/25 15:57:52;;;;;;;6.13;3.80;;;;;;;;;;5072093;28;20059;-76
2022/01/25 16:00:19;;;;;;;5.32;3.60;;;;;;;;;;5071882;28;20102;-77
2022/01/25 16:02:49;;;;;;;8.52;3.78;;;;;;;;;;5074883;28;20037;-77
2022/01/25 16:05:21;;;;;;;8.30;4.20;;;;;;;;;;5073408;28;20039;-84
2022/01/25 16:07:50;;;;;;;6.20;3.70;;;;;;;;;;5074632;28;20115;-84
2022/01/25 16:10:19;;;;;;;7.03;3.60;;;;;;;;;;5074840;28;20038;-78
2022/01/25 16:12:47;;;;;;;4.00;3.10;;;;;;;;;;5074173;28;20041;-83
2022/01/25 16:15:15;;;;;;;6.07;3.97;;;;;;;;;;5074283;28;20040;-78
2022/01/25 16:17:44;;;;;;;6.18;3.35;;;;;;;;;;5074495;28;20119;-78
2022/01/25 16:20:13;;;;;;;6.57;3.42;;;;;;;;;;5074381;28;20035;-78
2022/01/25 16:22:41;;;;;;;4.88;3.75;;;;;;;;;;5073999;28;20046;-77
2022/01/25 16:25:15;;;;;;;7.30;3.67;;;;;;;;;;5069925;28;20486;-79
2022/01/25 16:27:45;;;;;;;7.57;5.60;;;;;;;;;;5073147;28;20040;-82
2022/01/25 16:30:14;;;;;;;14.52;8.38;;;;;;;;;;5074484;28;20047;-84
2022/01/25 16:32:44;;;;;;;9.02;5.15;;;;;;;;;;5072773;28;20089;-78
2022/01/25 16:35:14;;;;;;;8.02;4.68;;;;;;;;;;5053520;28;20049;-83
2022/01/25 16:37:43;;;;;;;9.13;5.20;;;;;;;;;;5066757;28;20044;-79
2022/01/25 16:40:11;;;;;;;8.20;4.97;;;;;;;;;;5069507;28;20052;-84
2022/01/25 16:42:41;;;;;;;12.18;4.47;;;;;;;;;;5070177;28;20033;-77
2022/01/25 16:45:11;;;;;;;6.70;4.10;;;;;;;;;;5060785;28;20116;-76
2022/01/25 16:47:40;;;;;;;6.40;3.92;;;;;;;;;;5070193;28;20408;-77
2022/01/25 16:50:14;;;;;;;6.75;3.78;;;;;;;;;;5071744;28;20040;-84
2022/01/25 16:52:44;;;;;;;6.88;4.22;;;;;;;;;;5074405;28;20119;-79
2022/01/25 16:55:14;;;;;;;7.57;3.88;;;;;;;;;;5065768;28;20036;-77
2022/01/25 16:58:04;;;;;;;7.68;3.95;;;;;;;;;;5069998;28;20044;-77
2022/01/25 17:00:34;;;;;;;6.68;4.50;;;;;;;;;;5071320;28;20066;-85
2022/01/25 17:03:03;;;;;;;6.20;4.20;;;;;;;;;;5067058;28;20067;-79
2022/01/25 17:05:31;;;;;;;8.25;4.50;;;;;;;;;;5068521;28;20114;-77
2022/01/25 17:08:01;;;;;;;8.98;4.97;;;;;;;;;;5068439;28;20546;-79
2022/01/25 17:10:29;;;;;;;7.65;4.55;;;;;;;;;;5068544;28;20111;-79
2022/01/25 17:12:57;;;;;;;11.40;4.60;;;;;;;;;;5068427;28;20511;-79
2022/01/25 17:15:25;;;;;;;10.18;5.10;;;;;;;;;;5070513;28;20115;-84
2022/01/25 17:17:53;;;;;;;7.57;4.35;;;;;;;;;;5066978;28;20124;-79
2022/01/25 17:20:21;;;;;;;11.55;5.40;;;;;;;;;;5052157;28;20399;-77
2022/01/25 17:22:50;;;;;;;10.65;5.63;;;;;;;;;;5070904;28;20439;-80
2022/01/25 17:25:18;;;;;;;9.27;5.25;;;;;;;;;;5070396;28;20043;-80
2022/01/25 17:27:47;;;;;;;10.63;5.75;;;;;;;;;;5071958;28;20051;-80